Time;durP1;ratioP1;P1;durP2;ratioP2;P2;SDS_P1;SDS_P2;PMS_P1;PMS_P2;Temp;Humidity;BMP_temperature;BMP_pressure;BME280_temperature;BME280_humidity;BME280_pressure;Samples;Min_cycle;Max_cycle;Signal;HPM_P1;HPM_P2
2023/03/03 00:01:34;;;;;;;36.95;20.73;;;;;;;3.03;77.92;102129.25;3550047;40;20052;-67
2023/03/03 00:04:00;;;;;;;33.83;21.27;;;;;;;3.00;78.42;102137.25;3548799;40;20069;-68
2023/03/03 00:06:26;;;;;;;34.47;21.20;;;;;;;2.97;77.63;102137.28;3547459;40;20057;-67
2023/03/03 00:08:52;;;;;;;35.03;20.73;;;;;;;2.90;79.29;102140.91;3550616;40;20058;-69
2023/03/03 00:11:18;;;;;;;35.00;21.23;;;;;;;2.88;79.31;102140.03;3550803;40;20049;-67
2023/03/03 00:13:50;;;;;;;33.53;21.42;;;;;;;2.84;78.69;102143.63;3554655;40;20057;-68
2023/03/03 00:16:30;;;;;;;34.97;21.00;;;;;;;2.85;80.46;102137.41;3550265;40;20057;-69
2023/03/03 00:18:56;;;;;;;38.95;22.85;;;;;;;2.88;79.67;102141.81;3548361;40;20389;-67
2023/03/03 00:21:31;;;;;;;38.15;21.40;;;;;;;2.88;80.40;102137.38;3552870;40;20156;-68
2023/03/03 00:24:23;;;;;;;35.55;20.80;;;;;;;2.86;79.67;102144.50;3548745;40;20611;-68
2023/03/03 00:27:07;;;;;;;37.97;23.08;;;;;;;2.83;80.85;102136.56;3552806;40;20407;-68
2023/03/03 00:29:59;;;;;;;36.05;21.35;;;;;;;2.86;80.64;102141.84;3548947;40;20125;-67
2023/03/03 00:32:29;;;;;;;33.95;21.00;;;;;;;2.93;80.65;102148.84;3546974;40;20155;-68
2023/03/03 00:35:18;;;;;;;37.17;22.02;;;;;;;2.95;80.41;102157.69;3553638;40;20484;-68
2023/03/03 00:37:44;;;;;;;37.70;21.70;;;;;;;2.84;81.15;102119.72;3549679;40;20130;-68
2023/03/03 00:40:38;;;;;;;38.45;21.77;;;;;;;3.03;80.14;102155.81;3547758;40;20050;-67
2023/03/03 00:43:24;;;;;;;35.00;21.50;;;;;;;3.09;80.62;102146.06;3550244;40;20408;-67
2023/03/03 00:45:57;;;;;;;37.78;21.60;;;;;;;3.11;80.35;102155.78;3550795;40;20441;-67
2023/03/03 00:48:41;;;;;;;33.25;20.00;;;;;;;3.13;80.55;102151.31;3547048;40;20066;-67
2023/03/03 00:51:28;;;;;;;33.63;18.65;;;;;;;3.12;80.06;102156.66;3552673;40;20588;-67
2023/03/03 00:53:56;;;;;;;34.05;19.70;;;;;;;2.98;79.95;102132.84;3551015;40;20064;-67
2023/03/03 00:56:23;;;;;;;30.73;18.88;;;;;;;3.13;80.05;102153.09;3552234;40;20058;-67
2023/03/03 00:58:49;;;;;;;34.38;19.55;;;;;;;3.17;80.66;102154.81;3558116;40;20092;-67
2023/03/03 01:01:17;;;;;;;33.33;20.27;;;;;;;3.18;80.10;102157.47;3553629;40;20041;-67
2023/03/03 01:03:44;;;;;;;33.53;19.48;;;;;;;2.94;80.01;102110.75;3554662;40;20281;-67
2023/03/03 01:06:11;;;;;;;30.42;18.67;;;;;;;3.20;80.14;102154.78;3554431;40;20057;-67
2023/03/03 01:08:37;;;;;;;33.90;19.85;;;;;;;3.22;79.79;102163.63;3556428;40;20367;-68
2023/03/03 01:11:27;;;;;;;32.30;18.52;;;;;;;3.21;79.06;102156.56;3549585;40;20328;-68
2023/03/03 01:13:53;;;;;;;31.63;18.77;;;;;;;3.14;78.52;102154.84;3551490;40;20130;-68
2023/03/03 01:16:20;;;;;;;34.40;19.60;;;;;;;3.17;79.60;102161.03;3548674;40;20049;-68
2023/03/03 01:18:45;;;;;;;31.50;18.70;;;;;;;3.19;80.06;102166.31;3548956;40;20057;-67
2023/03/03 01:21:12;;;;;;;33.05;19.40;;;;;;;2.95;80.16;102120.50;3560298;40;20620;-67
2023/03/03 01:23:38;;;;;;;35.55;19.80;;;;;;;3.21;79.89;102151.25;3554077;40;20392;-67
2023/03/03 01:26:06;;;;;;;38.33;19.42;;;;;;;2.94;79.69;102110.75;3553696;40;20058;-67
2023/03/03 01:28:33;;;;;;;31.80;19.38;;;;;;;3.26;79.19;102168.00;3550319;40;20128;-68
2023/03/03 01:31:04;;;;;;;33.30;20.15;;;;;;;3.26;79.33;102168.88;3552723;40;20099;-68
2023/03/03 01:33:32;;;;;;;35.50;20.67;;;;;;;3.20;79.53;102160.09;3552771;40;20065;-67
2023/03/03 01:35:58;;;;;;;31.75;19.00;;;;;;;3.33;79.97;102171.47;3556055;40;20053;-67
2023/03/03 01:38:24;;;;;;;33.60;19.77;;;;;;;3.02;78.50;102110.72;3553658;40;20147;-67
2023/03/03 01:40:58;;;;;;;31.20;18.77;;;;;;;3.41;78.56;102170.50;3554801;40;20162;-67
2023/03/03 01:43:30;;;;;;;32.58;18.98;;;;;;;3.42;78.40;102172.25;3554210;40;20862;-67
2023/03/03 01:45:56;;;;;;;31.33;19.02;;;;;;;2.91;78.10;102089.53;3556331;40;20087;-66
2023/03/03 01:48:39;;;;;;;30.15;19.02;;;;;;;3.41;78.28;102177.63;3549700;40;20066;-67
2023/03/03 01:51:21;;;;;;;30.42;18.70;;;;;;;3.24;77.65;102183.97;3552298;40;20362;-67
2023/03/03 01:54:13;;;;;;;32.45;18.20;;;;;;;3.20;77.00;102187.56;3553878;40;20457;-67
2023/03/03 01:56:42;;;;;;;29.30;17.92;;;;;;;3.20;77.37;102181.34;3551231;40;20384;-67
2023/03/03 01:59:25;;;;;;;28.60;17.02;;;;;;;3.20;77.64;102170.72;3552376;40;20344;-67
2023/03/03 02:01:52;;;;;;;30.77;18.63;;;;;;;3.18;76.29;102177.84;3555009;40;20084;-68
2023/03/03 02:04:18;;;;;;;28.27;17.42;;;;;;;3.19;77.33;102174.28;3553386;40;20279;-67
2023/03/03 02:06:54;;;;;;;33.05;19.20;;;;;;;3.15;75.84;102161.94;3551451;40;20159;-67
2023/03/03 02:09:50;;;;;;;33.10;19.25;;;;;;;3.14;76.87;102177.00;3555128;40;20065;-67
2023/03/03 02:12:21;;;;;;;30.70;17.83;;;;;;;3.08;75.85;102168.22;3554417;40;20341;-67
2023/03/03 02:14:47;;;;;;;30.35;18.10;;;;;;;3.08;75.92;102171.75;3555475;40;20257;-68
2023/03/03 02:17:12;;;;;;;31.13;18.55;;;;;;;3.06;75.97;102173.53;3550616;40;20069;-67
2023/03/03 02:19:52;;;;;;;30.23;18.63;;;;;;;2.81;76.56;102145.41;3547208;40;20058;-67
2023/03/03 02:22:51;;;;;;;32.70;19.23;;;;;;;2.96;76.64;102169.19;3546774;40;20455;-67
2023/03/03 02:25:32;;;;;;;30.67;18.27;;;;;;;2.95;75.53;102186.91;3552294;40;20480;-67
2023/03/03 02:28:00;;;;;;;30.92;17.17;;;;;;;2.65;76.54;102132.25;3551861;40;20144;-67
2023/03/03 02:30:26;;;;;;;27.85;17.60;;;;;;;2.89;75.85;102176.34;3549094;40;20297;-66
2023/03/03 02:32:51;;;;;;;29.77;17.55;;;;;;;2.84;75.46;102182.56;3551238;40;20065;-67
2023/03/03 02:35:35;;;;;;;32.03;19.33;;;;;;;2.77;75.88;102187.06;3550899;40;20345;-66
2023/03/03 02:38:07;;;;;;;;;;;;;;;2.73;75.90;102180.88;3552190;40;20106;-67
2023/03/03 02:40:46;;;;;;;30.05;17.23;;;;;;;2.63;76.04;102167.69;3550561;40;19936;-67
2023/03/03 02:43:18;;;;;;;32.20;18.85;;;;;;;2.64;76.53;102180.06;3552703;40;20139;-66
2023/03/03 02:45:44;;;;;;;32.35;18.42;;;;;;;2.61;76.68;102167.69;3550462;40;20207;-67
2023/03/03 02:48:10;;;;;;;29.10;17.88;;;;;;;2.68;76.52;102177.38;3546339;40;20094;-68
2023/03/03 02:50:37;;;;;;;31.67;18.15;;;;;;;2.72;77.58;102178.22;3552749;40;20283;-67
2023/03/03 02:53:02;;;;;;;33.08;18.73;;;;;;;2.72;76.17;102181.75;3548418;40;20054;-67
2023/03/03 02:55:28;;;;;;;30.20;17.92;;;;;;;2.68;77.04;102176.50;3552503;40;20418;-68
2023/03/03 02:57:54;;;;;;;29.52;17.65;;;;;;;2.62;76.34;102181.84;3551525;40;20065;-68
2023/03/03 03:00:20;;;;;;;37.58;20.05;;;;;;;2.55;77.15;102181.88;3551672;40;20057;-68
2023/03/03 03:02:46;;;;;;;32.45;18.52;;;;;;;2.52;77.50;102183.69;3550213;40;20057;-68
2023/03/03 03:05:11;;;;;;;35.03;20.38;;;;;;;2.49;77.43;102181.06;3555808;40;20053;-68
2023/03/03 03:07:37;;;;;;;31.88;18.45;;;;;;;2.50;77.25;102191.63;3549301;40;20061;-68
2023/03/03 03:10:03;;;;;;;33.17;18.83;;;;;;;2.48;77.08;102179.31;3549386;40;20073;-68
2023/03/03 03:12:29;;;;;;;33.83;18.65;;;;;;;2.45;77.54;102182.84;3549648;40;20131;-68
2023/03/03 03:14:54;;;;;;;30.23;17.90;;;;;;;2.47;76.99;102189.00;3551113;40;20062;-67
2023/03/03 03:17:20;;;;;;;31.58;18.15;;;;;;;2.48;77.65;102182.84;3550712;40;20319;-68
2023/03/03 03:19:46;;;;;;;33.67;18.50;;;;;;;2.51;78.50;102189.91;3551064;40;20204;-68
2023/03/03 03:22:11;;;;;;;32.60;18.35;;;;;;;2.53;78.09;102188.97;3553628;40;20064;-68
2023/03/03 03:24:37;;;;;;;32.67;18.75;;;;;;;2.53;77.35;102191.63;3552960;40;20308;-68
2023/03/03 03:27:03;;;;;;;32.67;18.00;;;;;;;2.49;78.47;102192.53;3547188;40;20066;-68
2023/03/03 03:29:28;;;;;;;27.48;15.80;;;;;;;2.46;78.28;102195.22;3551064;40;20104;-69
2023/03/03 03:31:54;;;;;;;31.17;17.27;;;;;;;2.44;78.12;102196.13;3548044;40;20103;-68
2023/03/03 03:34:20;;;;;;;31.60;17.15;;;;;;;2.45;77.54;102197.91;3549413;40;20061;-68
2023/03/03 03:36:45;;;;;;;29.05;17.02;;;;;;;2.44;77.65;102194.38;3547186;40;20088;-68
2023/03/03 03:39:11;;;;;;;29.30;17.17;;;;;;;2.44;78.38;102183.75;3550612;40;20074;-68
2023/03/03 03:41:37;;;;;;;30.67;17.88;;;;;;;2.47;78.63;102198.75;3550469;40;20060;-67
2023/03/03 03:44:03;;;;;;;31.05;17.42;;;;;;;2.50;77.74;102198.72;3556734;40;20101;-68
2023/03/03 03:46:28;;;;;;;30.25;16.80;;;;;;;1.76;78.56;102070.97;3553876;40;20286;-67
2023/03/03 03:48:54;;;;;;;29.30;16.38;;;;;;;2.52;78.67;102203.16;3552707;40;20132;-67
2023/03/03 03:51:20;;;;;;;30.20;16.90;;;;;;;2.56;77.20;102194.25;3550457;40;20312;-67
2023/03/03 03:53:45;;;;;;;27.70;15.75;;;;;;;2.64;77.24;102201.31;3550421;40;20076;-68
2023/03/03 03:56:11;;;;;;;28.60;17.00;;;;;;;2.67;77.17;102198.63;3549923;40;20054;-67
2023/03/03 03:58:36;;;;;;;29.42;16.92;;;;;;;2.56;77.21;102199.56;3548886;40;20080;-68
2023/03/03 04:01:07;;;;;;;26.75;15.63;;;;;;;2.59;77.68;102205.75;3549959;40;20205;-68
2023/03/03 04:03:34;;;;;;;27.17;15.82;;;;;;;2.56;77.72;102206.66;3547628;40;20096;-68
2023/03/03 04:06:00;;;;;;;28.15;17.02;;;;;;;2.56;77.67;102206.66;3550609;40;20104;-68
2023/03/03 04:08:25;;;;;;;29.65;16.83;;;;;;;2.54;77.07;102204.03;3551304;40;20416;-68
2023/03/03 04:10:51;;;;;;;27.55;16.38;;;;;;;2.52;77.05;102199.63;3553831;40;20057;-68
2023/03/03 04:13:17;;;;;;;29.65;17.10;;;;;;;2.48;77.40;102208.50;3553475;40;20045;-68
2023/03/03 04:15:42;;;;;;;28.50;16.95;;;;;;;2.47;77.73;102215.53;3546690;40;20064;-69
2023/03/03 04:18:08;;;;;;;28.08;16.30;;;;;;;2.46;77.41;102211.13;3550505;40;20066;-67
2023/03/03 04:20:34;;;;;;;28.67;16.35;;;;;;;2.42;77.40;102209.41;3548816;40;20057;-67
2023/03/03 04:22:59;;;;;;;28.67;16.10;;;;;;;2.39;77.60;102222.69;3554059;40;20050;-67
2023/03/03 04:25:25;;;;;;;25.58;15.23;;;;;;;2.39;77.34;102221.81;3547738;40;20069;-68
2023/03/03 04:27:51;;;;;;;25.17;14.52;;;;;;;2.36;76.81;102228.00;3548833;40;20061;-68
2023/03/03 04:30:18;;;;;;;27.27;15.80;;;;;;;2.04;77.18;102173.34;3551954;40;20097;-68
2023/03/03 04:32:43;;;;;;;26.60;15.23;;;;;;;2.36;77.66;102221.81;3546209;40;20056;-68
2023/03/03 04:35:10;;;;;;;27.50;16.08;;;;;;;2.40;77.30;102224.44;3550033;40;20061;-68
2023/03/03 04:37:37;;;;;;;28.00;15.85;;;;;;;2.46;76.53;102219.09;3550484;40;20380;-67
2023/03/03 04:40:09;;;;;;;28.45;16.00;;;;;;;2.46;77.04;102223.53;3549809;40;20368;-68
2023/03/03 04:42:35;;;;;;;30.67;15.80;;;;;;;1.80;76.82;102107.19;3550163;40;20665;-68
2023/03/03 04:45:01;;;;;;;27.80;15.98;;;;;;;2.35;76.80;102207.69;3552626;40;20062;-67
2023/03/03 04:47:27;;;;;;;25.40;15.57;;;;;;;2.45;77.29;102221.78;3550897;40;20289;-68
2023/03/03 04:49:53;;;;;;;26.38;15.90;;;;;;;2.48;76.18;102217.34;3551478;40;20065;-68
2023/03/03 04:52:18;;;;;;;24.50;14.63;;;;;;;2.47;76.86;102220.84;3550968;40;20061;-68
2023/03/03 04:54:44;;;;;;;26.02;16.00;;;;;;;2.47;77.17;102219.97;3548673;40;20087;-68
2023/03/03 04:57:09;;;;;;;26.05;14.70;;;;;;;2.48;76.15;102230.59;3555948;40;20105;-68
2023/03/03 04:59:35;;;;;;;28.45;15.70;;;;;;;2.49;76.96;102223.53;3547088;40;20140;-68
2023/03/03 05:02:03;;;;;;;25.15;14.85;;;;;;;2.48;76.02;102220.00;3550766;40;20054;-69
2023/03/03 05:04:29;;;;;;;27.05;15.60;;;;;;;2.56;76.37;102223.47;3550521;40;20298;-68
2023/03/03 05:06:56;;;;;;;26.40;14.25;;;;;;;2.61;76.87;102226.09;3548241;40;20061;-68
2023/03/03 05:09:22;;;;;;;27.80;15.02;;;;;;;2.62;76.65;102225.19;3550134;40;20061;-68
2023/03/03 05:11:47;;;;;;;27.17;15.07;;;;;;;2.61;75.55;102222.56;3556881;40;20160;-67
2023/03/03 05:14:13;;;;;;;27.23;15.27;;;;;;;2.65;75.90;102229.63;3558742;40;20396;-68
2023/03/03 05:16:39;;;;;;;25.42;13.98;;;;;;;2.61;76.87;102220.78;3553952;40;20057;-67
2023/03/03 05:19:05;;;;;;;25.52;14.95;;;;;;;2.56;76.84;102215.50;3551474;40;20045;-69
2023/03/03 05:21:30;;;;;;;27.65;16.23;;;;;;;2.66;75.86;102236.66;3551728;40;20112;-68
2023/03/03 05:23:56;;;;;;;29.45;16.33;;;;;;;2.69;76.38;102231.34;3553226;40;20057;-68
2023/03/03 05:26:21;;;;;;;30.27;17.58;;;;;;;2.68;75.96;102234.91;3547792;40;20054;-68
2023/03/03 05:28:47;;;;;;;29.55;17.65;;;;;;;2.69;76.50;102231.34;3550460;40;20156;-68
2023/03/03 05:31:12;;;;;;;29.48;18.02;;;;;;;2.70;75.54;102239.31;3557257;40;20307;-68
2023/03/03 05:33:38;;;;;;;30.23;17.13;;;;;;;2.73;76.42;102235.78;3551092;40;20057;-68
2023/03/03 05:36:04;;;;;;;34.08;18.38;;;;;;;2.73;76.15;102236.66;3549935;40;20424;-68
2023/03/03 05:38:29;;;;;;;27.30;16.10;;;;;;;2.75;76.36;102236.63;3555409;40;20065;-67
2023/03/03 05:40:55;;;;;;;30.70;16.42;;;;;;;2.76;75.82;102241.06;3553563;40;20050;-68
2023/03/03 05:43:21;;;;;;;30.02;16.92;;;;;;;2.76;76.20;102233.97;3551006;40;20052;-67
2023/03/03 05:45:46;;;;;;;31.35;16.90;;;;;;;2.49;76.47;102189.88;3553372;40;20058;-68
2023/03/03 05:48:12;;;;;;;32.63;18.02;;;;;;;2.80;76.42;102232.16;3557492;40;20060;-68
2023/03/03 05:50:39;;;;;;;30.25;16.85;;;;;;;2.81;75.67;102231.25;3548268;40;20521;-67
2023/03/03 05:53:04;;;;;;;27.40;15.88;;;;;;;2.86;76.26;102241.88;3548215;40;20042;-68
2023/03/03 05:55:30;;;;;;;28.52;15.95;;;;;;;2.89;75.13;102237.41;3551828;40;20386;-68
2023/03/03 05:57:56;;;;;;;28.77;15.77;;;;;;;2.89;75.57;102234.75;3554330;40;20077;-69
2023/03/03 06:00:22;;;;;;;26.92;15.27;;;;;;;2.88;76.36;102230.31;3553514;40;20316;-69
2023/03/03 06:02:47;;;;;;;27.75;15.15;;;;;;;2.97;75.58;102238.22;3546900;40;21045;-69
2023/03/03 06:05:13;;;;;;;27.30;15.63;;;;;;;2.99;75.05;102244.41;3551241;40;20057;-68
2023/03/03 06:07:39;;;;;;;28.40;14.73;;;;;;;2.96;76.33;102247.09;3547101;40;20060;-68
2023/03/03 06:10:06;;;;;;;27.95;15.70;;;;;;;3.00;75.52;102242.63;3550788;40;20324;-69
2023/03/03 06:12:31;;;;;;;26.38;15.20;;;;;;;3.02;75.53;102254.16;3546635;40;20097;-68
2023/03/03 06:14:57;;;;;;;28.35;16.02;;;;;;;2.71;76.54;102190.63;3552908;40;20069;-68
2023/03/03 06:17:22;;;;;;;28.95;15.55;;;;;;;2.34;75.31;102115.69;3553735;40;20164;-68
2023/03/03 06:19:48;;;;;;;27.75;15.15;;;;;;;3.08;75.32;102240.81;3547242;40;20083;-68
2023/03/03 06:22:14;;;;;;;27.40;16.13;;;;;;;3.10;75.84;102249.63;3549082;40;20065;-67
2023/03/03 06:24:39;;;;;;;27.95;15.70;;;;;;;3.11;75.33;102256.72;3549707;40;20050;-68
2023/03/03 06:27:05;;;;;;;29.35;15.60;;;;;;;3.15;74.99;102262.91;3548013;40;20058;-68
2023/03/03 06:29:30;;;;;;;25.55;16.40;;;;;;;3.17;75.04;102251.38;3551149;40;20091;-68
2023/03/03 06:31:57;;;;;;;29.30;16.23;;;;;;;3.21;74.97;102262.84;3552482;40;20065;-68
2023/03/03 06:34:22;;;;;;;30.55;16.30;;;;;;;3.00;75.48;102226.69;3552140;40;20057;-68
2023/03/03 06:36:48;;;;;;;31.02;16.17;;;;;;;3.29;75.40;102266.31;3548279;40;20073;-68
2023/03/03 06:39:14;;;;;;;30.50;16.58;;;;;;;2.99;75.05;102215.19;3550191;40;20409;-68
2023/03/03 06:41:40;;;;;;;27.98;15.32;;;;;;;3.32;73.96;102274.25;3550406;40;20085;-68
2023/03/03 06:44:05;;;;;;;27.30;15.40;;;;;;;3.26;74.45;102282.28;3552790;40;20394;-68
2023/03/03 06:46:31;;;;;;;28.02;15.35;;;;;;;3.32;74.42;102281.34;3555452;40;20372;-69
2023/03/03 06:48:56;;;;;;;31.63;16.13;;;;;;;3.35;74.29;102292.84;3547380;40;20050;-69
2023/03/03 06:51:32;;;;;;;26.70;15.10;;;;;;;3.37;73.71;102288.41;3550420;40;20073;-69
2023/03/03 06:54:15;;;;;;;28.67;15.95;;;;;;;3.38;74.02;102292.81;3547372;40;20054;-69
2023/03/03 06:56:43;;;;;;;26.53;15.50;;;;;;;3.41;74.29;102291.91;3556410;40;20082;-70
2023/03/03 06:59:20;;;;;;;28.58;15.73;;;;;;;3.43;74.04;102306.97;3552969;40;20087;-69
2023/03/03 07:01:49;;;;;;;26.98;15.02;;;;;;;3.45;74.07;102298.94;3550415;40;20111;-69
2023/03/03 07:04:30;;;;;;;26.95;15.95;;;;;;;3.43;73.58;102298.97;3549044;40;20065;-69
2023/03/03 07:07:15;;;;;;;29.30;15.32;;;;;;;3.48;74.19;102297.16;3549653;40;20453;-69
2023/03/03 07:09:46;;;;;;;28.17;15.00;;;;;;;3.55;73.51;102299.75;3550349;40;20414;-69
2023/03/03 07:12:26;;;;;;;30.63;15.25;;;;;;;3.59;73.08;102312.16;3548782;40;20058;-69
2023/03/03 07:15:11;;;;;;;29.30;15.02;;;;;;;3.61;73.57;102311.22;3551978;40;20499;-68
2023/03/03 07:17:49;;;;;;;25.85;14.48;;;;;;;3.20;72.75;102234.50;3549935;40;20495;-70
2023/03/03 07:20:26;;;;;;;24.63;14.98;;;;;;;3.64;72.40;102307.66;3556981;40;20458;-69
2023/03/03 07:22:52;;;;;;;27.92;14.70;;;;;;;3.68;73.23;102314.72;3554287;40;20054;-69
2023/03/03 07:25:38;;;;;;;28.15;15.27;;;;;;;3.70;72.51;102312.91;3549086;40;20342;-70
2023/03/03 07:28:26;;;;;;;27.35;15.05;;;;;;;3.73;72.74;102310.22;3550353;40;20123;-68
2023/03/03 07:30:55;;;;;;;26.20;15.30;;;;;;;3.79;73.18;102310.16;3547296;40;20057;-68
2023/03/03 07:33:28;;;;;;;25.50;14.60;;;;;;;3.80;72.36;102311.03;3551522;40;20324;-71
2023/03/03 07:35:57;;;;;;;26.10;14.02;;;;;;;3.87;72.63;102315.41;3552021;40;20065;-68
2023/03/03 07:38:41;;;;;;;25.15;14.85;;;;;;;3.90;73.07;102321.59;3555766;40;20064;-68
2023/03/03 07:41:19;;;;;;;;;;;;;;;3.89;72.71;102327.78;3555729;40;20304;-68
2023/03/03 07:43:55;;;;;;;27.90;14.95;;;;;;;3.90;72.59;102326.00;3554454;40;20019;-68
2023/03/03 07:46:49;;;;;;;29.23;14.45;;;;;;;3.88;72.58;102335.81;3549816;40;20127;-68
2023/03/03 07:49:42;;;;;;;29.83;16.10;;;;;;;3.88;72.51;102335.81;3552602;40;20062;-68
2023/03/03 07:52:33;;;;;;;31.98;16.45;;;;;;;3.90;73.29;102340.22;3551711;40;20069;-68
2023/03/03 07:55:26;;;;;;;29.27;15.93;;;;;;;3.95;72.94;102333.06;3552211;40;20131;-67
2023/03/03 07:57:56;;;;;;;29.17;15.75;;;;;;;3.98;72.70;102341.91;3553308;40;20066;-68
2023/03/03 08:00:27;;;;;;;30.35;16.38;;;;;;;4.02;73.07;102339.19;3555023;40;20057;-67
2023/03/03 08:03:03;;;;;;;29.67;16.35;;;;;;;4.06;73.32;102340.03;3553579;40;20060;-68
2023/03/03 08:05:42;;;;;;;27.63;15.18;;;;;;;3.85;72.56;102298.59;3551117;40;20053;-68
2023/03/03 08:08:29;;;;;;;31.10;16.13;;;;;;;4.11;71.54;102343.53;3548245;40;20065;-68
2023/03/03 08:10:59;;;;;;;30.25;15.65;;;;;;;4.09;71.71;102347.97;3547339;40;20189;-69
2023/03/03 08:13:28;;;;;;;28.30;16.08;;;;;;;4.09;72.05;102350.66;3547695;40;20363;-67
2023/03/03 08:16:23;;;;;;;32.08;17.05;;;;;;;4.09;72.05;102350.66;3553693;40;20373;-68
2023/03/03 08:18:52;;;;;;;32.33;16.65;;;;;;;3.99;72.41;102333.91;3549973;40;20070;-68
2023/03/03 08:21:23;;;;;;;29.55;16.17;;;;;;;4.09;72.36;102355.97;3550425;40;20126;-69
2023/03/03 08:23:52;;;;;;;30.55;15.73;;;;;;;4.07;71.98;102361.31;3547945;40;20061;-69
2023/03/03 08:26:21;;;;;;;29.95;15.70;;;;;;;4.10;72.35;102363.94;3551340;40;20068;-69
2023/03/03 08:28:47;;;;;;;28.13;14.85;;;;;;;4.12;72.34;102367.50;3548593;40;20069;-69
2023/03/03 08:31:13;;;;;;;29.08;15.52;;;;;;;4.09;71.62;102371.94;3547683;40;20049;-70
2023/03/03 08:33:39;;;;;;;27.75;13.65;;;;;;;3.74;70.93;102311.97;3549257;40;20065;-69
2023/03/03 08:36:07;;;;;;;29.88;14.77;;;;;;;3.62;70.84;102297.03;3551861;40;20059;-70
2023/03/03 08:38:33;;;;;;;26.25;13.73;;;;;;;4.07;71.59;102366.66;3546222;40;20128;-70
2023/03/03 08:40:59;;;;;;;25.77;13.98;;;;;;;4.07;70.68;102358.66;3551663;40;20088;-69
2023/03/03 08:43:24;;;;;;;27.55;13.98;;;;;;;4.20;70.98;102370.06;3551355;40;20056;-69
2023/03/03 08:45:58;;;;;;;21.77;12.60;;;;;;;4.28;69.57;102368.22;3546449;40;20054;-69
2023/03/03 08:48:24;;;;;;;;;;;;;;;4.33;69.86;102368.16;3549673;40;20318;-70
2023/03/03 08:50:51;;;;;;;25.58;13.23;;;;;;;4.46;68.85;102379.53;3559982;40;19929;-69
2023/03/03 08:53:19;;;;;;;25.85;13.20;;;;;;;4.52;69.49;102380.34;3556607;40;20052;-69
2023/03/03 08:55:46;;;;;;;24.55;13.52;;;;;;;4.60;68.94;102386.47;3552352;40;20328;-70
2023/03/03 08:58:12;;;;;;;27.88;14.45;;;;;;;4.58;68.72;102385.59;3548719;40;20090;-70
2023/03/03 09:00:39;;;;;;;26.55;13.98;;;;;;;4.62;68.65;102389.97;3539887;40;20113;-70
2023/03/03 09:03:08;;;;;;;29.60;15.68;;;;;;;4.46;69.50;102383.06;3547544;40;20061;-69
2023/03/03 09:05:37;;;;;;;32.38;16.88;;;;;;;4.37;70.60;102368.06;3549812;40;20045;-70
2023/03/03 09:08:04;;;;;;;28.75;15.82;;;;;;;4.54;70.54;102396.31;3551225;40;20435;-70
2023/03/03 09:10:31;;;;;;;28.67;15.68;;;;;;;4.55;70.72;102396.28;3553915;40;20053;-70
2023/03/03 09:13:11;;;;;;;27.73;15.70;;;;;;;4.51;71.14;102396.34;3549762;40;20045;-70
2023/03/03 09:15:37;;;;;;;27.50;15.23;;;;;;;4.51;71.41;102396.34;3548901;40;20303;-70
2023/03/03 09:18:15;;;;;;;31.00;15.10;;;;;;;4.52;70.63;102400.78;3550326;40;20332;-70
2023/03/03 09:20:52;;;;;;;31.88;15.60;;;;;;;4.54;70.57;102401.66;3555040;40;20046;-69
2023/03/03 09:23:30;;;;;;;28.40;13.85;;;;;;;4.57;70.58;102401.63;3554506;40;20075;-70
2023/03/03 09:26:14;;;;;;;26.10;14.65;;;;;;;4.60;70.18;102401.56;3542157;40;20058;-70
2023/03/03 09:28:39;;;;;;;;;;;;;;;4.62;69.88;102403.28;3550289;40;20061;-70
2023/03/03 09:31:48;;;;;;;26.38;13.35;;;;;;;4.73;70.10;102408.50;3551510;40;20466;-70
2023/03/03 09:34:20;;;;;;;25.02;12.90;;;;;;;4.78;69.62;102401.34;3553035;40;20049;-70
2023/03/03 09:36:48;;;;;;;23.23;12.65;;;;;;;4.80;68.60;102410.19;3553152;40;20069;-70
2023/03/03 09:39:27;;;;;;;24.20;12.60;;;;;;;4.75;68.90;102404.03;3552304;40;20136;-70
2023/03/03 09:42:42;;;;;;;19.85;12.35;;;;;;;4.48;67.90;102341.34;3553014;40;20053;-69
2023/03/03 09:45:25;;;;;;;22.65;11.65;;;;;;;5.02;67.17;102410.81;3548690;40;20122;-71
2023/03/03 09:48:18;;;;;;;23.00;12.10;;;;;;;5.07;66.86;102414.31;3553260;40;20132;-70
2023/03/03 09:51:04;;;;;;;21.23;11.27;;;;;;;5.16;67.11;102415.94;3550403;40;20065;-71
2023/03/03 09:54:05;;;;;;;23.08;12.32;;;;;;;5.21;67.15;102413.22;3555408;40;20061;-70
2023/03/03 09:56:45;;;;;;;18.77;10.85;;;;;;;5.23;66.94;102419.41;3552814;40;20112;-70
2023/03/03 09:59:38;;;;;;;19.83;10.95;;;;;;;5.20;66.32;102415.00;3552907;40;20389;-71
2023/03/03 10:02:32;;;;;;;21.15;10.68;;;;;;;5.23;66.33;102424.72;3546920;40;20084;-68
2023/03/03 10:05:35;;;;;;;19.00;9.80;;;;;;;5.21;66.06;102432.75;3551065;40;20057;-69
2023/03/03 10:08:35;;;;;;;20.85;10.30;;;;;;;5.21;66.07;102432.75;3551728;40;20058;-69
2023/03/03 10:11:50;;;;;;;19.98;10.82;;;;;;;5.39;66.00;102428.06;3553088;40;20091;-69
2023/03/03 10:14:47;;;;;;;17.23;9.65;;;;;;;5.57;64.92;102419.78;3554908;40;20152;-69
2023/03/03 10:17:52;;;;;;;16.30;9.55;;;;;;;5.65;63.99;102423.22;3554148;40;20055;-69
2023/03/03 10:20:54;;;;;;;19.85;10.43;;;;;;;5.79;64.36;102425.66;3557480;40;20082;-69
2023/03/03 10:23:54;;;;;;;18.58;10.85;;;;;;;5.98;64.29;102428.94;3552490;40;20384;-69
2023/03/03 10:27:04;;;;;;;18.75;10.48;;;;;;;6.04;63.42;102420.84;3551070;40;20692;-69
2023/03/03 10:29:59;;;;;;;19.52;9.85;;;;;;;6.11;63.59;102425.16;3549954;40;20053;-70
2023/03/03 10:33:00;;;;;;;15.20;9.23;;;;;;;6.10;62.65;102425.19;3551750;40;20446;-69
2023/03/03 10:36:03;;;;;;;16.65;9.63;;;;;;;6.06;62.44;102429.72;3553155;40;20068;-69
2023/03/03 10:39:13;;;;;;;18.67;9.20;;;;;;;6.07;63.14;102425.25;3555697;40;20053;-69
2023/03/03 10:41:58;;;;;;;16.70;10.00;;;;;;;6.14;62.81;102427.78;3530602;40;20058;-69
2023/03/03 10:44:50;;;;;;;17.10;9.82;;;;;;;6.30;63.00;102424.84;3554640;40;20065;-70
2023/03/03 10:47:48;;;;;;;19.05;9.82;;;;;;;6.42;62.37;102427.28;3553653;40;20057;-69
2023/03/03 10:50:40;;;;;;;15.88;8.93;;;;;;;6.47;61.18;102428.97;3551581;40;20093;-69
2023/03/03 10:53:47;;;;;;;15.25;8.98;;;;;;;6.47;61.14;102425.38;3550468;40;20053;-69
2023/03/03 10:56:41;;;;;;;14.73;8.25;;;;;;;6.56;60.51;102419.88;3516099;40;20403;-70
2023/03/03 10:59:16;;;;;;;;;;;;;;;6.66;60.82;102425.91;3547572;40;20097;-70
2023/03/03 11:01:52;;;;;;;14.52;8.32;;;;;;;6.89;61.24;102431.69;3549843;40;20176;-69
2023/03/03 11:04:36;;;;;;;15.98;9.57;;;;;;;7.10;60.06;102421.44;3549886;40;20407;-68
2023/03/03 11:07:26;;;;;;;14.65;8.93;;;;;;;7.22;59.28;102427.38;3550857;40;20072;-70
2023/03/03 11:10:36;;;;;;;15.52;9.75;;;;;;;7.25;59.22;102420.22;3552472;40;20057;-70
2023/03/03 11:13:15;;;;;;;18.40;9.80;;;;;;;7.29;60.12;102416.56;3550213;40;20439;-69
2023/03/03 11:16:05;;;;;;;15.50;10.02;;;;;;;7.83;59.08;102408.13;3552525;40;20148;-69
2023/03/03 11:19:25;;;;;;;16.52;8.88;;;;;;;8.43;57.81;102418.19;3549135;40;20065;-70
2023/03/03 11:22:24;;;;;;;16.52;9.52;;;;;;;9.10;55.63;102414.50;3545749;40;20127;-69
2023/03/03 11:25:04;;;;;;;14.57;9.52;;;;;;;9.24;54.68;102404.25;3552275;40;20201;-71
2023/03/03 11:28:19;;;;;;;14.80;9.18;;;;;;;9.20;54.37;102414.19;3549479;40;20392;-70
2023/03/03 11:31:25;;;;;;;16.25;9.27;;;;;;;8.34;54.54;102287.13;3550912;40;20124;-70
2023/03/03 11:34:23;;;;;;;15.10;8.55;;;;;;;8.92;54.83;102410.59;3550147;40;20645;-69
2023/03/03 11:37:02;;;;;;;17.08;9.88;;;;;;;8.65;55.63;102404.22;3549737;40;20355;-69
2023/03/03 11:39:28;;;;;;;17.23;10.57;;;;;;;8.55;56.03;102404.47;3549232;40;20559;-69
2023/03/03 11:42:31;;;;;;;14.75;9.07;;;;;;;8.45;56.15;102408.31;3555768;40;20101;-69
2023/03/03 11:45:17;;;;;;;16.42;9.65;;;;;;;8.54;57.33;102408.06;3553602;40;20069;-70
2023/03/03 11:47:57;;;;;;;16.85;9.15;;;;;;;8.84;55.69;102408.09;3551315;40;20274;-70
2023/03/03 11:50:40;;;;;;;15.95;10.07;;;;;;;9.31;53.95;102413.84;3550224;40;20065;-70
2023/03/03 11:53:46;;;;;;;15.07;9.02;;;;;;;9.24;54.57;102414.97;3548748;40;20054;-70